createdAt,value
2018-01-07T00:00:59.959Z,65.91
2018-01-07T00:01:59.944Z,66.86
2018-01-07T00:02:59.935Z,67.62
2018-01-07T00:03:59.918Z,67.43
2018-01-07T00:04:59.908Z,67.81
2018-01-07T00:05:59.897Z,67.62
2018-01-07T00:06:59.879Z,67.33
2018-01-07T00:07:59.873Z,67.33
2018-01-07T00:08:59.852Z,67.62
2018-01-07T00:09:59.840Z,66.58
2018-01-07T00:10:59.828Z,66.48
2018-01-07T00:11:59.815Z,67.33
2018-01-07T00:12:59.806Z,67.14
2018-01-07T00:13:59.792Z,66.48
2018-01-07T00:14:59.780Z,66.58
2018-01-07T00:15:59.761Z,66.58
2018-01-07T00:16:59.754Z,66.67
2018-01-07T00:17:59.738Z,66.67
2018-01-07T00:18:59.727Z,66.58
2018-01-07T00:19:59.718Z,66.48
2018-01-07T00:20:59.703Z,66.48
2018-01-07T00:21:59.691Z,66.86
2018-01-07T00:22:59.676Z,67.05
2018-01-07T00:23:59.662Z,67.52
2018-01-07T00:24:59.654Z,67.33
2018-01-07T00:25:59.640Z,67.43
2018-01-07T00:26:59.628Z,66.10
2018-01-07T00:27:59.615Z,64.49
2018-01-07T00:28:59.609Z,64.20
2018-01-07T00:29:59.589Z,65.06
2018-01-07T00:30:59.577Z,65.63
2018-01-07T00:31:59.564Z,65.82
2018-01-07T00:32:59.556Z,65.72
2018-01-07T00:33:59.543Z,65.06
2018-01-07T00:34:59.529Z,64.40
2018-01-07T00:35:59.517Z,64.30
2018-01-07T00:36:59.503Z,64.20
2018-01-07T00:37:59.489Z,63.35
2018-01-07T00:38:59.477Z,63.82
2018-01-07T00:39:59.466Z,63.67
2018-01-07T00:40:59.449Z,64.33
2018-01-07T00:41:59.441Z,64.52
2018-01-07T00:42:59.425Z,64.30
2018-01-07T00:43:59.416Z,63.54
2018-01-07T00:44:59.399Z,63.86
2018-01-07T00:45:59.390Z,64.33
2018-01-07T00:46:59.379Z,63.95
2018-01-07T00:47:59.363Z,63.57
2018-01-07T00:48:59.352Z,63.29
2018-01-07T00:49:59.346Z,63.39
2018-01-07T00:50:59.327Z,64.24
2018-01-07T00:51:59.318Z,64.90
2018-01-07T00:52:59.306Z,64.90
2018-01-07T00:53:59.293Z,65.66
2018-01-07T00:54:59.283Z,65.66
2018-01-07T00:55:59.264Z,65.56
2018-01-07T00:56:59.251Z,65.16
2018-01-07T00:57:59.239Z,65.00
2018-01-07T00:58:59.224Z,64.01
2018-01-07T00:59:59.215Z,64.87
2018-01-07T01:00:59.199Z,65.16
2018-01-07T01:01:59.187Z,65.72
2018-01-07T01:02:59.174Z,65.72
2018-01-07T01:03:59.166Z,65.72
2018-01-07T01:04:59.153Z,65.75
2018-01-07T01:05:59.144Z,65.16
2018-01-07T01:06:59.128Z,64.97
2018-01-07T01:07:59.113Z,65.06
2018-01-07T01:08:59.103Z,65.28
2018-01-07T01:09:59.092Z,65.16
2018-01-07T01:10:59.076Z,65.75
2018-01-07T01:11:59.064Z,66.01
2018-01-07T01:12:59.048Z,65.72
2018-01-07T01:13:59.046Z,65.19
2018-01-07T01:14:59.027Z,64.78
2018-01-07T01:15:59.013Z,65.00
2018-01-07T01:16:59.002Z,65.37
2018-01-07T01:17:58.993Z,65.72
2018-01-07T01:18:58.978Z,65.09
2018-01-07T01:19:58.966Z,65.09
2018-01-07T01:20:58.954Z,65.09
2018-01-07T01:21:58.940Z,65.47
2018-01-07T01:22:58.926Z,64.97
2018-01-07T01:23:58.917Z,65.19
2018-01-07T01:24:58.894Z,65.85
2018-01-07T01:25:58.887Z,66.14
2018-01-07T01:26:58.875Z,65.56
2018-01-07T01:27:58.874Z,64.81
2018-01-07T01:28:58.856Z,64.24
2018-01-07T01:29:58.844Z,64.24
2018-01-07T01:30:58.830Z,63.39
2018-01-07T01:31:58.816Z,63.20
2018-01-07T01:32:58.808Z,62.91
2018-01-07T01:33:59.784Z,63.39
2018-01-07T01:34:58.781Z,63.67
2018-01-07T01:35:58.769Z,64.24
2018-01-07T01:36:58.759Z,64.62
2018-01-07T01:37:58.744Z,65.56
2018-01-07T01:38:58.727Z,64.81
2018-01-07T01:39:58.718Z,64.43
2018-01-07T01:40:58.700Z,63.39
2018-01-07T01:41:58.695Z,63.20
2018-01-07T01:42:58.679Z,63.39
2018-01-07T01:43:58.676Z,63.76
2018-01-07T01:44:58.655Z,64.24
2018-01-07T01:45:58.645Z,64.71
2018-01-07T01:46:58.625Z,65.28
2018-01-07T01:47:58.616Z,65.19
2018-01-07T01:48:58.602Z,65.19
2018-01-07T01:49:58.588Z,65.37
2018-01-07T01:50:58.571Z,64.71
2018-01-07T01:51:58.564Z,65.28
2018-01-07T01:52:58.552Z,65.19
2018-01-07T01:53:58.546Z,64.71
2018-01-07T01:54:58.527Z,64.62
2018-01-07T01:55:58.516Z,64.81
2018-01-07T01:56:58.507Z,64.71
2018-01-07T01:57:58.499Z,64.33
2018-01-07T01:58:58.480Z,64.33
2018-01-07T01:59:58.467Z,63.86
2018-01-07T02:00:58.461Z,64.43
2018-01-07T02:01:58.441Z,64.24
2018-01-07T02:02:58.425Z,64.14
2018-01-07T02:03:58.422Z,64.43
2018-01-07T02:04:58.401Z,64.05
2018-01-07T02:05:58.389Z,63.76
2018-01-07T02:06:58.374Z,63.48
2018-01-07T02:07:58.365Z,64.24
2018-01-07T02:08:58.353Z,65.19
2018-01-07T02:09:58.340Z,65.09
2018-01-07T02:10:58.331Z,66.04
2018-01-07T02:11:58.317Z,65.47
2018-01-07T02:12:58.305Z,66.33
2018-01-07T02:13:58.290Z,65.85
2018-01-07T02:14:58.284Z,66.89
2018-01-07T02:15:58.269Z,67.56
2018-01-07T02:16:58.254Z,67.18
2018-01-07T02:17:58.240Z,67.62
2018-01-07T02:18:58.237Z,67.43
2018-01-07T02:19:58.216Z,67.81
2018-01-07T02:20:58.207Z,67.81
2018-01-07T02:21:58.198Z,67.71
2018-01-07T02:22:58.176Z,66.71
2018-01-07T02:23:58.172Z,66.52
2018-01-07T02:24:58.156Z,66.48
2018-01-07T02:25:58.142Z,66.89
2018-01-07T02:26:58.128Z,65.85
2018-01-07T02:27:58.114Z,65.95
2018-01-07T02:28:58.101Z,66.04
2018-01-07T02:29:58.090Z,66.80
2018-01-07T02:30:58.081Z,66.71
2018-01-07T02:31:58.067Z,67.37
2018-01-07T02:32:58.055Z,67.56
2018-01-07T02:33:58.043Z,67.27
2018-01-07T02:34:58.031Z,67.65
2018-01-07T02:35:58.016Z,68.23
2018-01-07T02:36:58.006Z,67.37
2018-01-07T02:37:58.000Z,65.95
2018-01-07T02:38:57.979Z,66.52
2018-01-07T02:39:57.975Z,65.75
2018-01-07T02:40:57.957Z,65.47
2018-01-07T02:41:57.945Z,66.33
2018-01-07T02:42:57.934Z,67.56
2018-01-07T02:43:57.916Z,67.65
2018-01-07T02:44:57.910Z,67.46
2018-01-07T02:45:57.893Z,68.23
2018-01-07T02:46:57.896Z,68.04
2018-01-07T02:47:57.866Z,67.18
2018-01-07T02:48:57.854Z,65.19
2018-01-07T02:49:57.847Z,64.43
2018-01-07T02:50:57.835Z,64.81
2018-01-07T02:51:57.817Z,65.28
2018-01-07T02:52:57.811Z,65.28
2018-01-07T02:53:57.787Z,65.28
2018-01-07T02:54:57.783Z,64.90
2018-01-07T02:55:57.768Z,65.75
2018-01-07T02:56:57.757Z,66.42
2018-01-07T02:57:57.748Z,66.99
2018-01-07T02:58:57.732Z,67.65
2018-01-07T02:59:57.720Z,67.75
2018-01-07T03:00:57.713Z,67.27
2018-01-07T03:01:57.699Z,66.33
2018-01-07T03:02:57.686Z,66.33
2018-01-07T03:03:57.668Z,66.42
2018-01-07T03:04:57.656Z,66.61
2018-01-07T03:05:57.651Z,67.56
2018-01-07T03:06:57.632Z,68.23
2018-01-07T03:07:57.660Z,68.51
2018-01-07T03:08:57.605Z,68.23
2018-01-07T03:09:57.601Z,67.46
2018-01-07T03:10:57.578Z,67.75
2018-01-07T03:11:57.568Z,67.56
2018-01-07T03:12:57.582Z,68.32
2018-01-07T03:13:57.546Z,68.98
2018-01-07T03:14:57.535Z,69.17
2018-01-07T03:15:57.521Z,68.04
2018-01-07T03:16:57.507Z,68.60
2018-01-07T03:17:57.494Z,68.23
2018-01-07T03:18:57.481Z,68.60
2018-01-07T03:19:57.478Z,69.08
2018-01-07T03:20:57.456Z,69.36
2018-01-07T03:21:57.455Z,69.46
2018-01-07T03:22:57.432Z,68.70
2018-01-07T03:23:57.422Z,68.79
2018-01-07T03:24:57.408Z,68.98
2018-01-07T03:25:57.396Z,69.13
2018-01-07T03:26:57.388Z,69.04
2018-01-07T03:27:57.370Z,69.52
2018-01-07T03:28:57.360Z,70.03
2018-01-07T03:29:57.345Z,69.90
2018-01-07T03:30:57.337Z,69.93
2018-01-07T03:31:57.319Z,70.37
2018-01-07T03:32:57.310Z,70.47
2018-01-07T03:33:57.296Z,70.37
2018-01-07T03:34:57.282Z,69.71
2018-01-07T03:35:57.273Z,70.28
2018-01-07T03:36:57.260Z,70.56
2018-01-07T03:37:57.250Z,70.59
2018-01-07T03:38:57.233Z,70.75
2018-01-07T03:39:57.226Z,70.84
2018-01-07T03:40:57.214Z,70.18
2018-01-07T03:41:57.196Z,69.52
2018-01-07T03:42:57.189Z,69.80
2018-01-07T03:43:57.173Z,70.09
2018-01-07T03:44:57.161Z,70.56
2018-01-07T03:45:57.150Z,70.56
2018-01-07T03:46:57.134Z,70.65
2018-01-07T03:47:57.125Z,70.65
2018-01-07T03:48:57.112Z,69.80
2018-01-07T03:49:57.101Z,69.04
2018-01-07T03:50:57.089Z,68.85
2018-01-07T03:51:57.070Z,68.13
2018-01-07T03:52:57.062Z,68.76
2018-01-07T03:53:57.052Z,68.89
2018-01-07T03:54:57.036Z,69.74
2018-01-07T03:55:57.035Z,69.74
2018-01-07T03:56:57.009Z,69.74
2018-01-07T03:57:57.002Z,69.71
2018-01-07T03:58:56.990Z,69.65
2018-01-07T03:59:56.978Z,69.52
2018-01-07T04:00:56.964Z,70.18
2018-01-07T04:01:56.952Z,70.37
2018-01-07T04:02:56.943Z,70.37
2018-01-07T04:03:56.941Z,70.56
2018-01-07T04:04:56.914Z,69.90
2018-01-07T04:05:56.904Z,70.28
2018-01-07T04:06:56.885Z,70.37
2018-01-07T04:07:56.874Z,70.84
2018-01-07T04:08:56.864Z,70.94
2018-01-07T04:09:56.853Z,71.32
2018-01-07T04:10:56.845Z,71.13
2018-01-07T04:11:56.828Z,70.47
2018-01-07T04:12:56.817Z,70.37
2018-01-07T04:13:56.803Z,70.37
2018-01-07T04:14:56.791Z,71.13
2018-01-07T04:15:56.778Z,71.32
2018-01-07T04:16:56.761Z,70.47
2018-01-07T04:17:56.760Z,70.56
2018-01-07T04:18:56.740Z,70.47
2018-01-07T04:19:56.733Z,70.65
2018-01-07T04:20:56.711Z,70.84
2018-01-07T04:21:56.703Z,70.65
2018-01-07T04:22:56.692Z,71.22
2018-01-07T04:23:56.676Z,70.94
2018-01-07T04:24:56.665Z,71.22
2018-01-07T04:25:56.654Z,71.03
2018-01-07T04:26:56.640Z,70.94
2018-01-07T04:27:56.628Z,71.03
2018-01-07T04:28:56.620Z,70.47
2018-01-07T04:29:56.607Z,71.03
2018-01-07T04:30:56.592Z,71.32
2018-01-07T04:31:56.582Z,71.22
2018-01-07T04:32:56.566Z,71.22
2018-01-07T04:33:56.557Z,71.32
2018-01-07T04:34:56.541Z,70.84
2018-01-07T04:35:56.530Z,71.13
2018-01-07T04:36:56.518Z,71.51
2018-01-07T04:37:56.507Z,70.75
2018-01-07T04:38:56.496Z,71.03
2018-01-07T04:39:56.481Z,71.22
2018-01-07T04:40:56.473Z,71.03
2018-01-07T04:41:56.455Z,70.65
2018-01-07T04:42:56.444Z,70.84
2018-01-07T04:43:56.428Z,71.22
2018-01-07T04:44:56.417Z,70.75
2018-01-07T04:45:56.404Z,70.65
2018-01-07T04:46:56.390Z,70.84
2018-01-07T04:47:56.381Z,69.90
2018-01-07T04:48:56.370Z,69.99
2018-01-07T04:49:56.359Z,70.56
2018-01-07T04:50:56.343Z,70.09
2018-01-07T04:51:56.330Z,70.37
2018-01-07T04:52:56.317Z,70.84
2018-01-07T04:53:56.306Z,71.13
2018-01-07T04:54:56.292Z,70.56
2018-01-07T04:55:56.283Z,70.09
2018-01-07T04:56:56.270Z,70.18
2018-01-07T04:57:56.258Z,69.99
2018-01-07T04:58:56.249Z,69.90
2018-01-07T04:59:56.231Z,70.94
2018-01-07T05:00:56.220Z,69.71
2018-01-07T05:01:56.207Z,69.80
2018-01-07T05:02:56.195Z,69.90
2018-01-07T05:03:56.185Z,69.52
2018-01-07T05:04:56.166Z,70.56
2018-01-07T05:05:56.167Z,70.65
2018-01-07T05:06:56.143Z,70.47
2018-01-07T05:07:56.130Z,70.47
2018-01-07T05:08:56.121Z,70.94
2018-01-07T05:09:56.106Z,70.18
2018-01-07T05:10:56.090Z,69.99
2018-01-07T05:11:56.082Z,69.99
2018-01-07T05:12:56.070Z,69.99
2018-01-07T05:13:56.056Z,70.75
2018-01-07T05:14:56.043Z,70.09
2018-01-07T05:15:56.032Z,70.84
2018-01-07T05:16:56.023Z,70.65
2018-01-07T05:17:56.029Z,70.56
2018-01-07T05:18:56.002Z,70.37
2018-01-07T05:19:55.986Z,70.75
2018-01-07T05:20:55.973Z,71.03
2018-01-07T05:21:55.956Z,70.84
2018-01-07T05:22:55.951Z,70.75
2018-01-07T05:23:55.933Z,71.03
2018-01-07T05:24:55.919Z,70.94
2018-01-07T05:25:55.905Z,71.03
2018-01-07T05:26:55.902Z,71.22
2018-01-07T05:27:55.882Z,71.13
2018-01-07T05:28:55.880Z,71.32
2018-01-07T05:29:55.858Z,70.65
2018-01-07T05:30:55.845Z,70.65
2018-01-07T05:31:55.833Z,70.65
2018-01-07T05:32:55.820Z,70.65
2018-01-07T05:33:55.832Z,69.99
2018-01-07T05:34:55.797Z,70.75
2018-01-07T05:35:55.785Z,69.52
2018-01-07T05:36:55.774Z,69.42
2018-01-07T05:37:55.757Z,68.66
2018-01-07T05:38:55.751Z,69.04
2018-01-07T05:39:55.733Z,68.48
2018-01-07T05:40:55.720Z,68.95
2018-01-07T05:41:55.710Z,68.85
2018-01-07T05:42:55.695Z,69.04
2018-01-07T05:43:55.680Z,69.23
2018-01-07T05:44:55.667Z,69.04
2018-01-07T05:45:55.659Z,68.95
2018-01-07T05:46:55.646Z,69.52
2018-01-07T05:47:55.634Z,69.23
2018-01-07T05:48:55.622Z,69.33
2018-01-07T05:49:55.609Z,69.42
2018-01-07T05:50:55.597Z,69.42
2018-01-07T05:51:55.585Z,69.71
2018-01-07T05:52:55.568Z,69.52
2018-01-07T05:53:55.556Z,69.33
2018-01-07T05:54:55.546Z,69.23
2018-01-07T05:55:55.535Z,69.33
2018-01-07T05:56:55.531Z,69.13
2018-01-07T05:57:55.508Z,68.95
2018-01-07T05:58:55.494Z,69.23
2018-01-07T05:59:55.483Z,69.90
2018-01-07T06:00:55.476Z,69.99
2018-01-07T06:01:55.463Z,69.71
2018-01-07T06:02:55.451Z,69.71
2018-01-07T06:03:55.435Z,69.71
2018-01-07T06:04:55.428Z,69.90
2018-01-07T06:05:55.412Z,69.42
2018-01-07T06:06:55.401Z,69.80
2018-01-07T06:07:55.385Z,70.28
2018-01-07T06:08:55.370Z,69.80
2018-01-07T06:09:55.362Z,69.99
2018-01-07T06:10:55.348Z,69.61
2018-01-07T06:11:55.335Z,70.75
2018-01-07T06:12:55.324Z,68.85
2018-01-07T06:13:55.313Z,67.62
2018-01-07T06:14:55.293Z,66.29
2018-01-07T06:15:55.286Z,67.33
2018-01-07T06:16:55.307Z,67.62
2018-01-07T06:17:55.260Z,68.29
2018-01-07T06:18:55.248Z,68.76
2018-01-07T06:19:55.236Z,69.42
2018-01-07T06:20:55.221Z,69.90
2018-01-07T06:21:55.213Z,69.61
2018-01-07T06:22:55.192Z,69.52
2018-01-07T06:23:55.188Z,69.42
2018-01-07T06:24:55.172Z,69.52
2018-01-07T06:25:55.156Z,69.90
2018-01-07T06:26:55.149Z,69.42
2018-01-07T06:27:55.135Z,69.42
2018-01-07T06:28:55.119Z,69.99
2018-01-07T06:29:55.108Z,70.75
2018-01-07T06:30:55.102Z,70.37
2018-01-07T06:31:55.084Z,70.18
2018-01-07T06:32:55.072Z,70.18
2018-01-07T06:33:55.064Z,70.47
2018-01-07T06:34:55.048Z,69.80
2018-01-07T06:35:55.037Z,69.33
2018-01-07T06:36:55.040Z,69.42
2018-01-07T06:37:55.009Z,69.71
2018-01-07T06:38:55.010Z,69.52
2018-01-07T06:39:54.986Z,69.99
2018-01-07T06:40:54.976Z,69.33
2018-01-07T06:41:54.963Z,69.61
2018-01-07T06:42:54.951Z,70.28
2018-01-07T06:43:54.941Z,70.56
2018-01-07T06:44:54.925Z,69.80
2018-01-07T06:45:54.912Z,69.42
2018-01-07T06:46:54.900Z,69.71
2018-01-07T06:47:54.887Z,68.95
2018-01-07T06:48:54.876Z,68.10
2018-01-07T06:49:54.863Z,68.57
2018-01-07T06:50:54.845Z,69.04
2018-01-07T06:51:54.836Z,68.57
2018-01-07T06:52:54.824Z,68.38
2018-01-07T06:53:54.810Z,68.29
2018-01-07T06:54:54.797Z,68.10
2018-01-07T06:55:54.785Z,68.48
2018-01-07T06:56:54.779Z,68.29
2018-01-07T06:57:54.763Z,68.29
2018-01-07T06:58:54.750Z,68.38
2018-01-07T06:59:54.738Z,68.57
2018-01-07T07:00:54.725Z,68.95
2018-01-07T07:01:54.713Z,69.13
2018-01-07T07:02:54.706Z,68.85
2018-01-07T07:03:54.692Z,69.33
2018-01-07T07:04:54.672Z,68.00
2018-01-07T07:05:54.664Z,66.39
2018-01-07T07:06:54.648Z,66.48
2018-01-07T07:07:54.644Z,67.14
2018-01-07T07:08:54.628Z,67.62
2018-01-07T07:09:54.610Z,67.43
2018-01-07T07:10:54.599Z,68.00
2018-01-07T07:11:54.586Z,68.10
2018-01-07T07:12:54.573Z,68.19
2018-01-07T07:13:54.563Z,68.00
2018-01-07T07:14:54.542Z,68.00
2018-01-07T07:15:54.534Z,68.19
2018-01-07T07:16:54.521Z,67.52
2018-01-07T07:17:54.513Z,67.43
2018-01-07T07:18:54.497Z,67.43
2018-01-07T07:19:54.484Z,68.00
2018-01-07T07:20:54.475Z,68.57
2018-01-07T07:21:54.458Z,68.10
2018-01-07T07:22:54.448Z,68.66
2018-01-07T07:23:54.451Z,68.48
2018-01-07T07:24:54.425Z,68.19
2018-01-07T07:25:54.426Z,68.85
2018-01-07T07:26:54.405Z,69.04
2018-01-07T07:27:54.388Z,68.85
2018-01-07T07:28:54.368Z,68.10
2018-01-07T07:29:54.361Z,68.19
2018-01-07T07:30:54.345Z,68.38
2018-01-07T07:31:54.335Z,68.00
2018-01-07T07:32:54.320Z,69.33
2018-01-07T07:33:54.310Z,68.95
2018-01-07T07:34:54.296Z,69.04
2018-01-07T07:35:54.285Z,68.38
2018-01-07T07:36:54.272Z,66.10
2018-01-07T07:37:54.259Z,65.16
2018-01-07T07:38:54.247Z,64.78
2018-01-07T07:39:54.236Z,65.91
2018-01-07T07:40:54.224Z,66.58
2018-01-07T07:41:54.212Z,67.52
2018-01-07T07:42:54.198Z,67.62
2018-01-07T07:43:54.183Z,67.52
2018-01-07T07:44:54.172Z,67.43
2018-01-07T07:45:54.163Z,67.33
2018-01-07T07:46:54.147Z,67.43
2018-01-07T07:47:54.141Z,67.71
2018-01-07T07:48:54.122Z,67.24
2018-01-07T07:49:54.116Z,67.62
2018-01-07T07:50:54.095Z,66.39
2018-01-07T07:51:54.088Z,64.43
2018-01-07T07:52:54.074Z,64.81
2018-01-07T07:53:54.057Z,64.81
2018-01-07T07:54:54.048Z,65.00
2018-01-07T07:55:54.036Z,64.71
2018-01-07T07:56:54.022Z,65.19
2018-01-07T07:57:54.011Z,65.75
2018-01-07T07:58:53.994Z,66.14
2018-01-07T07:59:53.986Z,66.04
2018-01-07T08:00:53.973Z,65.75
2018-01-07T08:01:53.964Z,66.04
2018-01-07T08:02:53.948Z,65.95
2018-01-07T08:03:53.934Z,66.42
2018-01-07T08:04:53.924Z,66.61
2018-01-07T08:05:53.911Z,66.52
2018-01-07T08:06:53.893Z,66.42
2018-01-07T08:07:53.886Z,65.75
2018-01-07T08:08:53.876Z,65.37
2018-01-07T08:09:53.860Z,65.95
2018-01-07T08:10:53.847Z,66.71
2018-01-07T08:11:53.835Z,65.37
2018-01-07T08:12:53.826Z,64.24
2018-01-07T08:13:53.815Z,64.14
2018-01-07T08:14:53.799Z,64.24
2018-01-07T08:15:53.788Z,64.43
2018-01-07T08:16:53.775Z,65.09
2018-01-07T08:17:53.760Z,65.00
2018-01-07T08:18:53.748Z,65.00
2018-01-07T08:19:53.733Z,65.09
2018-01-07T08:20:53.721Z,65.09
2018-01-07T08:21:53.713Z,65.19
2018-01-07T08:22:53.700Z,65.28
2018-01-07T08:23:53.688Z,65.37
2018-01-07T08:24:53.675Z,65.41
2018-01-07T08:25:53.666Z,65.41
2018-01-07T08:26:53.650Z,65.31
2018-01-07T08:27:53.645Z,65.98
2018-01-07T08:28:53.644Z,65.79
2018-01-07T08:29:53.618Z,65.41
2018-01-07T08:30:53.602Z,65.03
2018-01-07T08:31:53.603Z,65.31
2018-01-07T08:32:53.578Z,64.94
2018-01-07T08:33:53.566Z,63.98
2018-01-07T08:34:53.554Z,64.27
2018-01-07T08:35:53.543Z,64.27
2018-01-07T08:36:53.526Z,63.51
2018-01-07T08:37:53.516Z,62.75
2018-01-07T08:38:53.507Z,63.42
2018-01-07T08:39:53.493Z,63.42
2018-01-07T08:40:53.478Z,63.32
2018-01-07T08:41:53.468Z,63.79
2018-01-07T08:42:53.453Z,64.27
2018-01-07T08:43:53.446Z,64.56
2018-01-07T08:44:53.433Z,64.65
2018-01-07T08:45:53.424Z,65.12
2018-01-07T08:46:53.406Z,64.69
2018-01-07T08:47:53.397Z,65.06
2018-01-07T08:48:53.386Z,64.21
2018-01-07T08:49:53.382Z,62.12
2018-01-07T08:50:53.368Z,60.88
2018-01-07T08:51:53.352Z,61.36
2018-01-07T08:52:53.340Z,61.83
2018-01-07T08:53:53.326Z,62.02
2018-01-07T08:54:53.317Z,60.60
2018-01-07T08:55:53.313Z,60.22
2018-01-07T08:56:53.287Z,61.48
2018-01-07T08:57:53.279Z,61.96
2018-01-07T08:58:53.270Z,62.43
2018-01-07T08:59:53.254Z,63.10
2018-01-07T09:00:53.243Z,61.68
2018-01-07T09:01:53.232Z,61.29
2018-01-07T09:02:53.216Z,60.63
2018-01-07T09:03:53.205Z,58.54
2018-01-07T09:04:53.200Z,57.68
2018-01-07T09:05:53.185Z,57.30
2018-01-07T09:06:53.176Z,56.92
2018-01-07T09:07:53.165Z,57.50
2018-01-07T09:08:53.149Z,58.18
2018-01-07T09:09:53.139Z,59.05
2018-01-07T09:10:53.130Z,59.80
2018-01-07T09:11:53.114Z,59.99
2018-01-07T09:12:53.103Z,60.75
2018-01-07T09:13:53.095Z,60.97
2018-01-07T09:14:53.098Z,59.74
2018-01-07T09:15:53.073Z,58.88
2018-01-07T09:16:53.062Z,59.64
2018-01-07T09:17:53.056Z,59.45
2018-01-07T09:18:53.041Z,58.53
2018-01-07T09:19:53.025Z,58.25
2018-01-07T09:20:53.017Z,57.48
2018-01-07T09:21:53.007Z,56.44
2018-01-07T09:22:52.993Z,55.49
2018-01-07T09:23:52.986Z,55.58
2018-01-07T09:24:52.972Z,56.44
2018-01-07T09:25:52.961Z,56.72
2018-01-07T09:26:52.961Z,57.48
2018-01-07T09:27:52.943Z,56.72
2018-01-07T09:28:52.931Z,56.82
2018-01-07T09:29:52.915Z,56.24
2018-01-07T09:30:52.906Z,56.44
2018-01-07T09:31:52.896Z,56.15
2018-01-07T09:32:52.887Z,55.29
2018-01-07T09:33:52.877Z,56.05
2018-01-07T09:34:52.864Z,55.29
2018-01-07T09:35:52.852Z,55.29
2018-01-07T09:36:52.840Z,55.10
2018-01-07T09:37:52.830Z,55.87
2018-01-07T09:38:52.822Z,55.49
2018-01-07T09:39:52.813Z,55.87
2018-01-07T09:40:52.803Z,56.53
2018-01-07T09:41:52.792Z,56.53
2018-01-07T09:42:52.778Z,57.13
2018-01-07T09:43:52.769Z,57.60
2018-01-07T09:44:52.758Z,56.75
2018-01-07T09:45:52.751Z,56.56
2018-01-07T09:46:52.737Z,54.94
2018-01-07T09:47:52.733Z,53.04
2018-01-07T09:48:52.720Z,51.70
2018-01-07T09:49:52.708Z,49.61
2018-01-07T09:50:52.698Z,50.46
2018-01-07T09:51:52.686Z,51.61
2018-01-07T09:52:52.678Z,52.40
2018-01-07T09:53:52.674Z,51.45
2018-01-07T09:54:52.655Z,50.01
2018-01-07T09:55:52.656Z,47.54
2018-01-07T09:56:52.637Z,46.58
2018-01-07T09:57:52.626Z,47.63
2018-01-07T09:58:52.617Z,48.11
2018-01-07T09:59:52.611Z,47.06
2018-01-07T10:00:52.599Z,47.44
2018-01-07T10:01:52.589Z,46.39
2018-01-07T10:02:52.581Z,47.06
2018-01-07T10:03:52.568Z,46.42
2018-01-07T10:04:52.563Z,45.18
2018-01-07T10:05:52.552Z,45.08
2018-01-07T10:06:52.535Z,45.18
2018-01-07T10:07:52.527Z,45.18
2018-01-07T10:08:52.517Z,44.32
2018-01-07T10:09:52.507Z,45.47
2018-01-07T10:10:52.562Z,46.51
2018-01-07T10:11:52.486Z,47.78
2018-01-07T10:12:52.476Z,49.40
2018-01-07T10:13:52.468Z,46.63
2018-01-07T10:14:52.453Z,44.53
2018-01-07T10:15:52.450Z,44.44
2018-01-07T10:16:52.451Z,44.44
2018-01-07T10:17:52.436Z,44.44
2018-01-07T10:18:52.420Z,46.15
2018-01-07T10:19:52.417Z,44.25
2018-01-07T10:20:52.399Z,44.37
2018-01-07T10:21:52.392Z,44.56
2018-01-07T10:22:52.381Z,45.51
2018-01-07T10:23:52.372Z,46.94
2018-01-07T10:24:52.364Z,44.94
2018-01-07T10:25:52.354Z,44.37
2018-01-07T10:26:52.347Z,43.89
2018-01-07T10:27:52.337Z,42.46
2018-01-07T10:28:52.324Z,42.55
2018-01-07T10:29:52.323Z,43.60
2018-01-07T10:30:52.304Z,43.03
2018-01-07T10:31:52.299Z,43.43
2018-01-07T10:32:52.286Z,41.98
2018-01-07T10:33:52.284Z,42.86
2018-01-07T10:34:52.271Z,43.33
2018-01-07T10:35:52.264Z,41.79
2018-01-07T10:36:52.255Z,42.46
2018-01-07T10:37:52.247Z,41.88
2018-01-07T10:38:52.237Z,42.63
2018-01-07T10:39:52.229Z,42.82
2018-01-07T10:40:52.223Z,43.77
2018-01-07T10:41:52.210Z,43.68
2018-01-07T10:42:52.200Z,43.29
2018-01-07T10:43:52.196Z,43.58
2018-01-07T10:44:52.182Z,43.75
2018-01-07T10:45:52.173Z,43.84
2018-01-07T10:46:52.163Z,45.08
2018-01-07T10:47:52.158Z,46.04
2018-01-07T10:48:52.149Z,45.37
2018-01-07T10:49:52.138Z,46.13
2018-01-07T10:50:52.130Z,46.04
2018-01-07T10:51:52.125Z,45.28
2018-01-07T10:52:52.116Z,46.23
2018-01-07T10:53:52.103Z,46.42
2018-01-07T10:54:52.094Z,46.04
2018-01-07T10:55:52.089Z,44.73
2018-01-07T10:56:52.118Z,44.82
2018-01-07T10:57:52.063Z,45.29
2018-01-07T10:58:52.057Z,44.82
2018-01-07T10:59:52.048Z,44.73
2018-01-07T11:00:52.040Z,45.20
2018-01-07T11:01:52.037Z,43.98
2018-01-07T11:02:52.021Z,43.60
2018-01-07T11:03:52.012Z,43.51
2018-01-07T11:04:52.007Z,43.22
2018-01-07T11:05:51.997Z,44.01
2018-01-07T11:06:51.986Z,44.20
2018-01-07T11:07:51.976Z,43.82
2018-01-07T11:08:51.966Z,42.86
2018-01-07T11:09:51.956Z,41.35
2018-01-07T11:10:51.949Z,40.88
2018-01-07T11:11:51.943Z,41.62
2018-01-07T11:12:51.937Z,40.86
2018-01-07T11:13:51.925Z,41.64
2018-01-07T11:14:51.915Z,41.06
2018-01-07T11:15:51.910Z,41.26
2018-01-07T11:16:51.896Z,41.16
2018-01-07T11:17:51.889Z,40.88
2018-01-07T11:18:51.883Z,42.21
2018-01-07T11:19:51.873Z,40.42
2018-01-07T11:20:51.874Z,40.01
2018-01-07T11:21:51.860Z,39.25
2018-01-07T11:22:51.847Z,40.00
2018-01-07T11:23:51.839Z,40.28
2018-01-07T11:24:51.831Z,40.37
2018-01-07T11:25:51.825Z,42.00
2018-01-07T11:26:51.815Z,42.02
2018-01-07T11:27:51.806Z,40.59
2018-01-07T11:28:51.809Z,40.11
2018-01-07T11:29:51.792Z,40.01
2018-01-07T11:30:51.784Z,39.92
2018-01-07T11:31:51.782Z,40.01
2018-01-07T11:32:51.768Z,39.92
2018-01-07T11:33:51.764Z,39.92
2018-01-07T11:34:51.753Z,40.20
2018-01-07T11:35:51.748Z,40.49
2018-01-07T11:36:51.741Z,40.01
2018-01-07T11:37:51.736Z,42.69
2018-01-07T11:38:51.716Z,42.61
2018-01-07T11:39:51.723Z,40.23
2018-01-07T11:40:51.710Z,39.94
2018-01-07T11:41:51.696Z,40.25
2018-01-07T11:42:51.687Z,39.29
2018-01-07T11:43:51.679Z,39.10
2018-01-07T11:44:51.679Z,38.91
2018-01-07T11:45:51.667Z,37.95
2018-01-07T11:46:51.661Z,38.43
2018-01-07T11:47:51.651Z,40.06
2018-01-07T11:48:51.642Z,38.81
2018-01-07T11:49:51.634Z,38.89
2018-01-07T11:50:51.631Z,38.79
2018-01-07T11:51:51.622Z,38.89
2018-01-07T11:52:51.611Z,38.98
2018-01-07T11:53:51.606Z,39.64
2018-01-07T11:54:51.593Z,40.01
2018-01-07T11:55:51.590Z,39.92
2018-01-07T11:56:51.582Z,40.28
2018-01-07T11:57:51.581Z,40.95
2018-01-07T11:58:51.568Z,40.28
2018-01-07T11:59:51.562Z,40.86
2018-01-07T12:00:51.561Z,41.60
2018-01-07T12:01:51.547Z,42.08
2018-01-07T12:02:51.533Z,42.84
2018-01-07T12:03:51.527Z,41.98
2018-01-07T12:04:51.520Z,41.98
2018-01-07T12:05:51.512Z,42.55
2018-01-07T12:06:51.501Z,43.03
2018-01-07T12:07:51.493Z,43.20
2018-01-07T12:08:51.489Z,43.22
2018-01-07T12:09:51.479Z,43.49
2018-01-07T12:10:51.471Z,43.01
2018-01-07T12:11:51.462Z,43.10
2018-01-07T12:12:51.455Z,43.87
2018-01-07T12:13:51.447Z,43.29
2018-01-07T12:14:51.439Z,43.58
2018-01-07T12:15:51.431Z,43.29
2018-01-07T12:16:51.424Z,43.20
2018-01-07T12:17:51.412Z,43.77
2018-01-07T12:18:51.402Z,43.49
2018-01-07T12:19:51.399Z,43.77
2018-01-07T12:20:51.385Z,43.77
2018-01-07T12:21:51.379Z,42.53
2018-01-07T12:22:51.369Z,43.68
2018-01-07T12:23:51.362Z,44.25
2018-01-07T12:24:51.354Z,43.96
2018-01-07T12:25:51.353Z,44.06
2018-01-07T12:26:51.334Z,44.25
2018-01-07T12:27:51.327Z,44.44
2018-01-07T12:28:51.315Z,44.44
2018-01-07T12:29:51.309Z,44.44
2018-01-07T12:30:51.297Z,44.44
2018-01-07T12:31:51.290Z,44.06
2018-01-07T12:32:51.298Z,44.04
2018-01-07T12:33:51.276Z,44.15
2018-01-07T12:34:51.268Z,44.13
2018-01-07T12:35:51.254Z,44.15
2018-01-07T12:36:51.247Z,43.75
2018-01-07T12:37:51.240Z,43.01
2018-01-07T12:38:51.234Z,43.49
2018-01-07T12:39:51.222Z,44.44
2018-01-07T12:40:51.210Z,45.20
2018-01-07T12:41:51.202Z,45.29
2018-01-07T12:42:51.215Z,43.29
2018-01-07T12:43:51.186Z,42.72
2018-01-07T12:44:51.178Z,42.44
2018-01-07T12:45:51.166Z,42.44
2018-01-07T12:46:51.159Z,43.20
2018-01-07T12:47:51.157Z,43.68
2018-01-07T12:48:51.144Z,44.82
2018-01-07T12:49:51.156Z,45.01
2018-01-07T12:50:51.119Z,45.20
2018-01-07T12:51:51.114Z,44.44
2018-01-07T12:52:51.104Z,43.58